Terminal Aerodrome Forecast
Issued by NWS

Home | Current Version | Previous Version | Text Only | Print | Product List | Glossary On
Versions: 1 2 3 4 5 6 7 8 9 10 11 12 13 14 15 16
000
FTUS41 KBGM 071730
TAFRME
TAF
KRME 071730Z 0718/0818 19008KT P6SM SCT025 BKN045
      TEMPO 0718/0720 BKN025 BKN035
     FM072100 16006KT P6SM SCT045
     FM080400 22008KT 5SM SHRA BR OVC025
     FM080800 31008KT 5SM BR BKN015
     FM081300 31008KT P6SM SCT040=

USA.gov is the U.S. government's official web portal to all federal, state and local government web resources and services.